»·PEaware :: N204WT KCMA-KDLO

N204WT :: KCMA-KDLO

FLIGHT INFORMATION

Flight Status: Arrived
Operator: Privately registered:
United States
More flights under this callsign
Pilot: Carson T. (20437)
Aircraft: PIPER PA-30 TWIN COMANCHE
(PA30)
More flights by this aircraft type
Origin: KCMA Camarillo
United States
Destination: KDLO Delano Mun
United States
More flights between these airports :: More routes between these airports
Route: L19
File this flight plan on PilotEdge
Remarks:
Altitude:
(Current/Filed)
10,500ft
Speed:
(Current/Filed)
170kts
Departed: 21-Sep-18 03:49 PM
Arrived: 21-Sep-18 04:32 PM
Distance/Time
Traveled:
92nm/0:43
Distance/Time
To Go:
Arrived

Flight Plot

Page will automatically refresh every two minutes.

Flight plan parsing failed; only flown route is shown


Map Options




Map Legend


Flown Route
Filed Route
Departure Airport
Arrival Airport
Navaid (VOR, NDB)
Fix

Horizontal Profiles

Position Reports

Time Latitude Longitude Heading Altitude Ground
Speed
21-Sep-18 15:41 34.210661 -119.088807 180 78ft 0kts
21-Sep-18 15:42 34.210661 -119.088807 180 78ft 0kts
21-Sep-18 15:43 34.210661 -119.088807 180 78ft 0kts
21-Sep-18 15:44 34.210661 -119.088807 180 78ft 0kts
21-Sep-18 15:45 34.210661 -119.088807 180 78ft 0kts
21-Sep-18 15:46 34.210661 -119.088807 180 78ft 0kts
21-Sep-18 15:47 34.211333 -119.088676 92 78ft 13kts
21-Sep-18 15:48 34.211303 -119.085063 91 78ft 13kts
21-Sep-18 15:49 34.212741 -119.084595 0 78ft 2kts
21-Sep-18 15:50 34.213610 -119.084633 327 78ft 5kts
21-Sep-18 15:51 34.213559 -119.107092 266 400ft 113kts
21-Sep-18 15:52 34.225439 -119.138839 343 1563ft 123kts
21-Sep-18 15:53 34.257807 -119.140994 353 2825ft 116kts
21-Sep-18 15:54 34.290159 -119.143542 354 3878ft 112kts
21-Sep-18 15:55 34.322192 -119.145139 356 4675ft 117kts
21-Sep-18 15:56 34.354621 -119.147933 350 5392ft 117kts
21-Sep-18 15:57 34.387682 -119.151749 350 5968ft 121kts
21-Sep-18 15:58 34.421681 -119.154964 349 6469ft 123kts
21-Sep-18 15:59 34.454801 -119.157985 350 7025ft 111kts
21-Sep-18 16:00 34.483405 -119.160735 350 7602ft 99kts
21-Sep-18 16:01 34.511323 -119.163312 350 8122ft 110kts
21-Sep-18 16:02 34.544224 -119.166897 350 8664ft 127kts
21-Sep-18 16:03 34.580210 -119.168862 356 9169ft 134kts
21-Sep-18 16:04 34.617188 -119.165016 5 9660ft 135kts
21-Sep-18 16:05 34.653704 -119.155118 13 10150ft 133kts
21-Sep-18 16:06 34.688357 -119.138744 15 10506ft 136kts
21-Sep-18 16:07 34.725345 -119.141996 348 10689ft 141kts
21-Sep-18 16:08 34.762323 -119.162711 326 10584ft 149kts
21-Sep-18 16:09 34.799137 -119.187908 327 10461ft 157kts
21-Sep-18 16:10 34.839635 -119.205064 344 10500ft 155kts
21-Sep-18 16:11 34.882184 -119.213704 347 10499ft 155kts
21-Sep-18 16:12 34.925335 -119.221772 347 10500ft 157kts
21-Sep-18 16:13 34.968725 -119.229978 347 10501ft 159kts
21-Sep-18 16:14 35.012956 -119.238256 347 10500ft 162kts
21-Sep-18 16:15 35.057556 -119.246651 347 10500ft 162kts
21-Sep-18 16:16 35.102331 -119.255102 347 10500ft 162kts
21-Sep-18 16:17 35.147084 -119.263557 347 10500ft 162kts
21-Sep-18 16:18 35.191992 -119.272053 347 10500ft 163kts
21-Sep-18 16:19 35.236781 -119.280543 347 10500ft 163kts
21-Sep-18 16:20 35.281558 -119.289034 347 10500ft 163kts
21-Sep-18 16:21 35.327203 -119.297743 347 10263ft 174kts
21-Sep-18 16:22 35.376269 -119.307195 348 9773ft 181kts
21-Sep-18 16:23 35.426377 -119.316740 348 9277ft 183kts
21-Sep-18 16:24 35.477005 -119.326377 348 8777ft 184kts
21-Sep-18 16:25 35.527723 -119.336058 348 8280ft 185kts
21-Sep-18 16:26 35.578660 -119.345803 348 7782ft 185kts
21-Sep-18 16:27 35.629708 -119.346210 19 7279ft 189kts
21-Sep-18 16:28 35.671259 -119.311193 36 6420ft 170kts
21-Sep-18 16:29 35.702195 -119.280913 38 4395ft 125kts
21-Sep-18 16:30 35.725878 -119.264321 357 2267ft 118kts
21-Sep-18 16:31 35.755665 -119.276992 335 1072ft 89kts
21-Sep-18 16:32 35.770446 -119.255839 85 904ft 93kts
21-Sep-18 16:33 35.755109 -119.241034 162 495ft 85kts
21-Sep-18 16:34 35.738674 -119.233185 158 317ft 14kts
21-Sep-18 16:35 35.738015 -119.233316 250 317ft 0kts
21-Sep-18 16:36 35.739013 -119.235335 337 317ft 8kts
21-Sep-18 16:37 35.742326 -119.236837 349 317ft 7kts
21-Sep-18 16:38 35.743630 -119.238223 249 317ft 2kts
21-Sep-18 16:39 35.743584 -119.238376 249 317ft 0kts
21-Sep-18 16:40 35.743583 -119.238377 249 317ft 0kts
21-Sep-18 16:41 35.743583 -119.238377 249 317ft 0kts
21-Sep-18 16:42 35.743583 -119.238377 249 317ft 0kts
21-Sep-18 16:43 35.743583 -119.238378 249 317ft 0kts

Navigation Log

Ident Type
Flight plan parsing failed, navigation log unavailable